Time,TemperatureF,DewpointF,PressureIn,WindDirection,WindDirectionDegrees,WindSpeedMPH,WindSpeedGustMPH,Humidity,HourlyPrecipIn,Conditions,Clouds,dailyrainin,SoftwareType,DateUTC
2013-04-15 00:00:00,47.3,39.4,30.34,North,1,0.0,0.0,74,0.00,SCT,SKC,0.00,WeatherDisplay:10.37,2013-04-14 22:00:00,
2013-04-15 00:10:00,46.9,39.4,30.35,North,1,0.0,0.0,75,0.00,SCT,SKC,0.00,WeatherDisplay:10.37,2013-04-14 22:10:00,
2013-04-15 00:20:00,46.3,38.9,30.35,North,1,0.0,0.0,75,0.00,SCT,SKC,0.00,WeatherDisplay:10.37,2013-04-14 22:20:00,
2013-04-15 00:30:00,45.7,38.5,30.35,North,1,0.0,0.0,76,0.00,SCT,SKC,0.00,WeatherDisplay:10.37,2013-04-14 22:30:00,
2013-04-15 00:40:00,44.8,38.0,30.35,North,1,0.0,0.0,77,0.00,SCT,SKC,0.00,WeatherDisplay:10.37,2013-04-14 22:40:00,
2013-04-15 00:50:00,44.0,37.3,30.35,North,1,0.0,0.0,77,0.00,SCT,SKC,0.00,WeatherDisplay:10.37,2013-04-14 22:50:00,
2013-04-15 01:00:00,43.3,36.9,30.35,North,1,0.0,0.0,78,0.00,SCT,SKC,0.00,WeatherDisplay:10.37,2013-04-14 23:00:00,
2013-04-15 01:10:00,42.6,36.6,30.35,North,1,0.0,0.0,79,0.00,SCT,SKC,0.00,WeatherDisplay:10.37,2013-04-14 23:10:00,
2013-04-15 01:20:00,42.0,36.6,30.35,North,1,0.0,0.0,81,0.00,SCT,SKC,0.00,WeatherDisplay:10.37,2013-04-14 23:20:00,
2013-04-15 01:30:00,41.7,36.3,30.36,North,1,0.0,0.0,81,0.00,SCT,SKC,0.00,WeatherDisplay:10.37,2013-04-14 23:30:00,
2013-04-15 01:40:00,41.2,36.1,30.36,North,1,0.0,0.0,82,0.00,SCT,SKC,0.00,WeatherDisplay:10.37,2013-04-14 23:40:00,
2013-04-15 01:50:00,40.8,36.1,30.36,North,1,0.0,0.0,83,0.00,SCT,SKC,0.00,WeatherDisplay:10.37,2013-04-14 23:50:00,
2013-04-15 02:00:00,40.3,35.6,30.35,North,1,0.0,0.0,83,0.00,SCT,SKC,0.00,WeatherDisplay:10.37,2013-04-15 00:00:00,
2013-04-15 02:10:00,40.3,35.8,30.35,North,1,0.0,0.0,84,0.00,SCT,SKC,0.00,WeatherDisplay:10.37,2013-04-15 00:10:00,
2013-04-15 02:20:00,40.8,36.6,30.35,North,1,0.0,0.0,85,0.00,SCT,SKC,0.00,WeatherDisplay:10.37,2013-04-15 00:20:00,
2013-04-15 02:30:00,41.2,37.3,30.35,North,1,0.0,0.0,86,0.00,SCT,SKC,0.00,WeatherDisplay:10.37,2013-04-15 00:30:00,
2013-04-15 02:40:00,41.5,37.7,30.35,North,1,0.0,0.0,86,0.00,SCT,SKC,0.00,WeatherDisplay:10.37,2013-04-15 00:40:00,
2013-04-15 02:50:00,41.2,37.4,30.35,North,1,0.0,0.0,86,0.00,SCT,SKC,0.00,WeatherDisplay:10.37,2013-04-15 00:50:00,
2013-04-15 03:00:00,41.0,37.1,30.34,North,1,0.0,0.0,86,0.00,SCT,SKC,0.00,WeatherDisplay:10.37,2013-04-15 01:00:00,
2013-04-15 03:10:00,40.8,37.0,30.34,North,1,0.0,0.0,86,0.00,SCT,SKC,0.00,WeatherDisplay:10.37,2013-04-15 01:10:00,
2013-04-15 03:20:00,40.5,36.6,30.35,North,1,0.0,0.0,86,0.00,SCT,SKC,0.00,WeatherDisplay:10.37,2013-04-15 01:20:00,
2013-04-15 03:30:00,40.3,36.4,30.35,North,1,0.0,0.0,86,0.00,SCT,SKC,0.00,WeatherDisplay:10.37,2013-04-15 01:30:00,
2013-04-15 03:40:00,39.9,36.4,30.34,North,1,0.0,0.0,87,0.00,SCT,SKC,0.00,WeatherDisplay:10.37,2013-04-15 01:40:00,
2013-04-15 03:50:00,39.9,36.4,30.35,North,1,0.0,0.0,87,0.00,SCT,SKC,0.00,WeatherDisplay:10.37,2013-04-15 01:50:00,
2013-04-15 04:00:00,39.9,36.4,30.34,North,1,0.0,0.0,87,0.00,SCT,SKC,0.00,WeatherDisplay:10.37,2013-04-15 02:00:00,
2013-04-15 04:10:00,39.9,36.4,30.34,North,1,0.0,0.0,87,0.00,SCT,SKC,0.00,WeatherDisplay:10.37,2013-04-15 02:10:00,
2013-04-15 04:20:00,39.9,36.4,30.34,North,1,0.0,0.0,87,0.00,SCT,SKC,0.00,WeatherDisplay:10.37,2013-04-15 02:20:00,
2013-04-15 04:30:00,39.7,36.2,30.34,North,1,0.0,0.0,87,0.00,SCT,SKC,0.00,WeatherDisplay:10.37,2013-04-15 02:30:00,
2013-04-15 04:40:00,39.9,36.4,30.34,North,1,0.0,0.0,87,0.00,SCT,SKC,0.00,WeatherDisplay:10.37,2013-04-15 02:40:00,
2013-04-15 04:50:00,40.6,37.4,30.34,North,1,0.0,0.0,88,0.00,SCT,SKC,0.00,WeatherDisplay:10.37,2013-04-15 02:50:00,
2013-04-15 05:00:00,40.8,37.5,30.34,North,1,0.0,0.0,88,0.00,SCT,SKC,0.00,WeatherDisplay:10.37,2013-04-15 03:00:00,
2013-04-15 05:10:00,40.6,37.4,30.34,North,1,0.0,0.0,88,0.00,SCT,SKC,0.00,WeatherDisplay:10.37,2013-04-15 03:10:00,
2013-04-15 05:20:00,40.6,37.4,30.34,North,1,0.0,0.0,88,0.00,SCT,SKC,0.00,WeatherDisplay:10.37,2013-04-15 03:20:00,
2013-04-15 05:30:00,40.6,37.1,30.34,North,1,0.0,0.0,87,0.00,SCT,SKC,0.00,WeatherDisplay:10.37,2013-04-15 03:30:00,
2013-04-15 05:40:00,40.6,37.1,30.34,North,1,0.0,0.0,87,0.00,SCT,SKC,0.00,WeatherDisplay:10.37,2013-04-15 03:40:00,
2013-04-15 05:50:00,41.0,37.4,30.35,North,1,0.0,0.0,87,0.00,SCT,SKC,0.00,WeatherDisplay:10.37,2013-04-15 03:50:00,
2013-04-15 06:00:00,41.0,37.4,30.35,North,1,0.0,0.0,87,0.00,SCT,SKC,0.00,WeatherDisplay:10.37,2013-04-15 04:00:00,
2013-04-15 06:10:00,40.8,37.3,30.35,North,1,0.0,0.0,87,0.00,SCT,SKC,0.00,WeatherDisplay:10.37,2013-04-15 04:10:00,
2013-04-15 06:20:00,40.8,37.3,30.35,North,1,0.0,0.0,87,0.00,SCT,SKC,0.00,WeatherDisplay:10.37,2013-04-15 04:20:00,
2013-04-15 06:30:00,40.6,36.8,30.36,North,1,0.0,0.0,86,0.00,SCT,SKC,0.00,WeatherDisplay:10.37,2013-04-15 04:30:00,
2013-04-15 06:40:00,40.8,37.0,30.35,North,1,0.0,0.0,86,0.00,SCT,SKC,0.00,WeatherDisplay:10.37,2013-04-15 04:40:00,
2013-04-15 06:50:00,41.0,37.1,30.36,North,1,0.0,0.0,86,0.00,SCT,SKC,0.00,WeatherDisplay:10.37,2013-04-15 04:50:00,
2013-04-15 07:00:00,41.2,37.3,30.36,North,1,0.0,0.0,86,0.00,SCT,SKC,0.00,WeatherDisplay:10.37,2013-04-15 05:00:00,
2013-04-15 07:10:00,42.5,38.3,30.36,North,1,0.0,0.0,85,0.00,SCT,SKC,0.00,WeatherDisplay:10.37,2013-04-15 05:10:00,
2013-04-15 07:20:00,44.4,39.5,30.36,North,1,0.0,0.0,83,0.00,SCT,SKC,0.00,WeatherDisplay:10.37,2013-04-15 05:20:00,
2013-04-15 07:30:00,45.3,39.9,30.36,North,1,0.0,0.0,81,0.00,SCT,SKC,0.00,WeatherDisplay:10.37,2013-04-15 05:30:00,
2013-04-15 07:40:00,46.2,40.1,30.37,North,1,0.0,0.0,79,0.00,SCT,SKC,0.00,WeatherDisplay:10.37,2013-04-15 05:40:00,
2013-04-15 07:50:00,46.8,40.3,30.37,North,1,0.0,0.0,78,0.00,SCT,SKC,0.00,WeatherDisplay:10.37,2013-04-15 05:50:00,
2013-04-15 08:00:00,47.8,40.3,30.37,North,1,0.0,0.0,75,0.00,SCT,SKC,0.00,WeatherDisplay:10.37,2013-04-15 06:00:00,
2013-04-15 08:10:00,48.9,40.3,30.37,North,1,0.0,0.0,72,0.00,SCT,SKC,0.00,WeatherDisplay:10.37,2013-04-15 06:10:00,
2013-04-15 08:20:00,49.8,39.7,30.37,North,1,0.0,0.0,68,0.00,SCT,SKC,0.00,WeatherDisplay:10.37,2013-04-15 06:20:00,
2013-04-15 08:30:00,50.7,39.7,30.37,North,1,0.0,0.0,66,0.00,SCT,SKC,0.00,WeatherDisplay:10.37,2013-04-15 06:30:00,
2013-04-15 08:40:00,51.1,38.5,30.37,North,1,0.0,0.0,62,0.00,SCT,SKC,0.00,WeatherDisplay:10.37,2013-04-15 06:40:00,
2013-04-15 08:50:00,51.3,39.2,30.38,North,1,0.0,0.0,63,0.00,SCT,SKC,0.00,WeatherDisplay:10.37,2013-04-15 06:50:00,
2013-04-15 09:00:00,51.5,39.3,30.38,North,1,0.0,0.0,63,0.00,SCT,SKC,0.00,WeatherDisplay:10.37,2013-04-15 07:00:00,
2013-04-15 09:50:00,54.5,39.1,30.38,North,1,0.0,0.0,56,0.00,SCT,SKC,0.00,WeatherDisplay:10.37,2013-04-15 07:50:00,
2013-04-15 10:00:00,54.5,39.1,30.37,North,1,0.0,0.0,56,0.00,SCT,SKC,0.00,WeatherDisplay:10.37,2013-04-15 08:00:00,
2013-04-15 10:10:00,55.0,39.1,30.38,North,1,0.0,0.0,55,0.00,SCT,SKC,0.00,WeatherDisplay:10.37,2013-04-15 08:10:00,
2013-04-15 10:20:00,55.9,40.0,30.38,North,1,0.0,0.0,55,0.00,SCT,SKC,0.00,WeatherDisplay:10.37,2013-04-15 08:20:00,
2013-04-15 10:30:00,56.3,40.4,30.38,North,1,0.0,0.0,55,0.00,SCT,SKC,0.00,WeatherDisplay:10.37,2013-04-15 08:30:00,
2013-04-15 10:40:00,56.3,39.4,30.37,North,1,0.0,0.0,53,0.00,SCT,SKC,0.00,WeatherDisplay:10.37,2013-04-15 08:40:00,
2013-04-15 10:50:00,57.0,40.0,30.37,North,1,0.0,0.0,53,0.00,SCT,SKC,0.00,WeatherDisplay:10.37,2013-04-15 08:50:00,
2013-04-15 11:00:00,57.4,40.4,30.37,North,1,0.0,0.0,53,0.00,SCT,SKC,0.00,WeatherDisplay:10.37,2013-04-15 09:00:00,
2013-04-15 11:10:00,57.9,41.4,30.37,North,1,0.0,0.0,54,0.00,SCT,SKC,0.00,WeatherDisplay:10.37,2013-04-15 09:10:00,
2013-04-15 11:20:00,58.3,40.7,30.36,North,1,0.0,0.0,52,0.00,SCT,SKC,0.00,WeatherDisplay:10.37,2013-04-15 09:20:00,
2013-04-15 11:30:00,58.3,40.7,30.36,North,1,0.0,0.0,52,0.00,SCT,SKC,0.00,WeatherDisplay:10.37,2013-04-15 09:30:00,
2013-04-15 11:40:00,58.8,41.2,30.36,North,1,0.0,0.0,52,0.00,SCT,SKC,0.00,WeatherDisplay:10.37,2013-04-15 09:40:00,
2013-04-15 11:50:00,58.5,40.4,30.36,North,1,0.0,0.0,51,0.00,SCT,SKC,0.00,WeatherDisplay:10.37,2013-04-15 09:50:00,
2013-04-15 12:00:00,58.6,41.1,30.36,North,1,0.0,0.0,52,0.00,SCT,SKC,0.00,WeatherDisplay:10.37,2013-04-15 10:00:00,
2013-04-15 12:10:00,58.8,41.2,30.36,North,1,0.0,0.0,52,0.00,SCT,SKC,0.00,WeatherDisplay:10.37,2013-04-15 10:10:00,
2013-04-15 12:20:00,58.3,40.7,30.36,North,1,0.0,0.0,52,0.00,SCT,SKC,0.00,WeatherDisplay:10.37,2013-04-15 10:20:00,
2013-04-15 12:30:00,58.9,40.3,30.36,North,1,0.0,0.0,50,0.00,SCT,SKC,0.00,WeatherDisplay:10.37,2013-04-15 10:30:00,
2013-04-15 12:40:00,59.5,40.3,30.36,North,1,0.0,0.0,49,0.00,SCT,SKC,0.00,WeatherDisplay:10.37,2013-04-15 10:40:00,
2013-04-15 13:00:00,59.8,41.2,30.35,North,1,0.0,0.0,50,0.00,SCT,SKC,0.00,WeatherDisplay:10.37,2013-04-15 11:00:00,
2013-04-15 13:10:00,60.4,41.2,30.35,North,1,0.0,0.0,49,0.00,SCT,SKC,0.00,WeatherDisplay:10.37,2013-04-15 11:10:00,
2013-04-15 13:20:00,59.7,41.0,30.34,North,1,0.0,0.0,50,0.00,SCT,SKC,0.00,WeatherDisplay:10.37,2013-04-15 11:20:00,
2013-04-15 13:30:00,60.0,41.3,30.34,North,1,0.0,0.0,50,0.00,SCT,SKC,0.00,WeatherDisplay:10.37,2013-04-15 11:30:00,
2013-04-15 13:40:00,60.1,40.3,30.34,North,1,0.0,0.0,48,0.00,SCT,SKC,0.00,WeatherDisplay:10.37,2013-04-15 11:40:00,
2013-04-15 13:50:00,59.2,39.5,30.34,North,1,0.0,0.0,48,0.00,SCT,SKC,0.00,WeatherDisplay:10.37,2013-04-15 11:50:00,
2013-04-15 14:00:00,60.3,40.5,30.34,North,1,0.0,0.0,48,0.00,SCT,SKC,0.00,WeatherDisplay:10.37,2013-04-15 12:00:00,
2013-04-15 14:10:00,60.8,40.5,30.33,North,1,0.0,0.0,47,0.00,SCT,SKC,0.00,WeatherDisplay:10.37,2013-04-15 12:10:00,
2013-04-15 14:20:00,61.0,40.6,30.33,North,1,0.0,0.0,47,0.00,SCT,SKC,0.00,WeatherDisplay:10.37,2013-04-15 12:20:00,
2013-04-15 14:30:00,61.7,40.7,30.33,North,1,0.0,0.0,46,0.00,SCT,SKC,0.00,WeatherDisplay:10.37,2013-04-15 12:30:00,
2013-04-15 14:40:00,62.1,39.9,30.32,North,1,0.0,0.0,44,0.00,SCT,SKC,0.00,WeatherDisplay:10.37,2013-04-15 12:40:00,
2013-04-15 14:50:00,61.9,39.1,30.32,North,1,0.0,0.0,43,0.00,SCT,SKC,0.00,WeatherDisplay:10.37,2013-04-15 12:50:00,
2013-04-15 15:00:00,62.3,40.1,30.32,North,1,0.0,0.0,44,0.00,SCT,SKC,0.00,WeatherDisplay:10.37,2013-04-15 13:00:00,
2013-04-15 15:10:00,62.6,39.2,30.31,North,1,0.0,0.0,42,0.00,SCT,SKC,0.00,WeatherDisplay:10.37,2013-04-15 13:10:00,
2013-04-15 15:20:00,62.4,39.6,30.31,North,1,0.0,0.0,43,0.00,SCT,SKC,0.00,WeatherDisplay:10.37,2013-04-15 13:20:00,
2013-04-15 15:30:00,62.2,40.0,30.30,North,1,0.0,0.0,44,0.00,SCT,SKC,0.00,WeatherDisplay:10.37,2013-04-15 13:30:00,
2013-04-15 15:40:00,62.4,39.6,30.30,North,1,0.0,0.0,43,0.00,SCT,SKC,0.00,WeatherDisplay:10.37,2013-04-15 13:40:00,
2013-04-15 15:50:00,62.4,39.6,30.30,North,1,0.0,0.0,43,0.00,SCT,SKC,0.00,WeatherDisplay:10.37,2013-04-15 13:50:00,
2013-04-15 16:00:00,62.4,39.6,30.30,North,1,0.0,0.0,43,0.00,SCT,SKC,0.00,WeatherDisplay:10.37,2013-04-15 14:00:00,
2013-04-15 16:10:00,62.8,39.3,30.29,North,1,0.0,0.0,42,0.00,SCT,SKC,0.00,WeatherDisplay:10.37,2013-04-15 14:10:00,
2013-04-15 16:20:00,62.8,39.3,30.29,North,1,0.0,0.0,42,0.00,SCT,SKC,0.00,WeatherDisplay:10.37,2013-04-15 14:20:00,
2013-04-15 16:30:00,62.2,38.2,30.29,North,1,0.0,0.0,41,0.00,SCT,SKC,0.00,WeatherDisplay:10.37,2013-04-15 14:30:00,
2013-04-15 16:40:00,62.2,39.5,30.29,North,1,0.0,0.0,43,0.00,SCT,SKC,0.00,WeatherDisplay:10.37,2013-04-15 14:40:00,
2013-04-15 16:50:00,62.2,38.2,30.29,North,1,0.0,0.0,41,0.00,SCT,SKC,0.00,WeatherDisplay:10.37,2013-04-15 14:50:00,
2013-04-15 17:00:00,61.9,37.9,30.29,North,1,0.0,0.0,41,0.00,SCT,SKC,0.00,WeatherDisplay:10.37,2013-04-15 15:00:00,
2013-04-15 17:10:00,61.9,37.9,30.29,North,1,0.0,0.0,41,0.00,SCT,SKC,0.00,WeatherDisplay:10.37,2013-04-15 15:10:00,
2013-04-15 17:20:00,61.9,37.9,30.28,North,1,0.0,0.0,41,0.00,SCT,SKC,0.00,WeatherDisplay:10.37,2013-04-15 15:20:00,
2013-04-15 17:30:00,61.5,37.0,30.28,North,1,0.0,0.0,40,0.00,SCT,SKC,0.00,WeatherDisplay:10.37,2013-04-15 15:30:00,
2013-04-15 17:40:00,61.5,36.3,30.28,North,1,0.0,0.0,39,0.00,SCT,SKC,0.00,WeatherDisplay:10.37,2013-04-15 15:40:00,
2013-04-15 17:50:00,61.2,37.3,30.28,North,1,0.0,0.0,41,0.00,SCT,SKC,0.00,WeatherDisplay:10.37,2013-04-15 15:50:00,
2013-04-15 18:00:00,61.2,36.0,30.28,North,1,0.0,0.0,39,0.00,SCT,SKC,0.00,WeatherDisplay:10.37,2013-04-15 16:00:00,
2013-04-15 18:10:00,61.0,35.8,30.28,North,1,0.0,0.0,39,0.00,SCT,SKC,0.00,WeatherDisplay:10.37,2013-04-15 16:10:00,
2013-04-15 18:20:00,60.6,36.1,30.28,North,1,0.0,0.0,40,0.00,SCT,SKC,0.00,WeatherDisplay:10.37,2013-04-15 16:20:00,
2013-04-15 18:30:00,59.9,36.7,30.28,North,1,0.0,0.0,42,0.00,SCT,SKC,0.00,WeatherDisplay:10.37,2013-04-15 16:30:00,
2013-04-15 18:40:00,59.5,37.6,30.28,North,1,0.0,0.0,44,0.00,SCT,SKC,0.00,WeatherDisplay:10.37,2013-04-15 16:40:00,
2013-04-15 18:50:00,59.0,37.7,30.27,North,1,0.0,0.0,45,0.00,SCT,SKC,0.00,WeatherDisplay:10.37,2013-04-15 16:50:00,
2013-04-15 19:00:00,58.6,37.9,30.28,North,1,0.0,0.0,46,0.00,SCT,SKC,0.00,WeatherDisplay:10.37,2013-04-15 17:00:00,
2013-04-15 19:10:00,57.9,37.8,30.28,North,1,0.0,0.0,47,0.00,SCT,SKC,0.00,WeatherDisplay:10.37,2013-04-15 17:10:00,
2013-04-15 19:30:00,56.3,36.9,30.28,North,1,0.0,0.0,48,0.00,SCT,SKC,0.00,WeatherDisplay:10.37,2013-04-15 17:30:00,
2013-04-15 19:40:00,56.0,37.6,30.28,North,1,0.0,0.0,50,0.00,SCT,SKC,0.00,WeatherDisplay:10.37,2013-04-15 17:40:00,
2013-04-15 19:50:00,55.2,37.9,30.28,North,1,0.0,0.0,52,0.00,SCT,SKC,0.00,WeatherDisplay:10.37,2013-04-15 17:50:00,
2013-04-15 20:00:00,54.5,38.2,30.28,North,1,0.0,0.0,54,0.00,SCT,SKC,0.00,WeatherDisplay:10.37,2013-04-15 18:00:00,
2013-04-15 20:10:00,54.1,38.3,30.28,North,1,0.0,0.0,55,0.00,SCT,SKC,0.00,WeatherDisplay:10.37,2013-04-15 18:10:00,
2013-04-15 20:20:00,53.2,37.9,30.29,North,1,0.0,0.0,56,0.00,SCT,SKC,0.00,WeatherDisplay:10.37,2013-04-15 18:20:00,
2013-04-15 20:30:00,52.7,37.9,30.29,North,1,0.0,0.0,57,0.00,SCT,SKC,0.00,WeatherDisplay:10.37,2013-04-15 18:30:00,
2013-04-15 20:40:00,51.6,37.3,30.29,North,1,0.0,0.0,58,0.00,SCT,SKC,0.00,WeatherDisplay:10.37,2013-04-15 18:40:00,
2013-04-15 20:50:00,50.4,36.6,30.29,North,1,0.0,0.0,59,0.00,SCT,SKC,0.00,WeatherDisplay:10.37,2013-04-15 18:50:00,
2013-04-15 21:00:00,49.4,36.9,30.29,North,1,0.0,0.0,62,0.00,SCT,SKC,0.00,WeatherDisplay:10.37,2013-04-15 19:00:00,
2013-04-15 21:10:00,48.6,36.9,30.29,North,1,0.0,0.0,64,0.00,SCT,SKC,0.00,WeatherDisplay:10.37,2013-04-15 19:10:00,
2013-04-15 21:20:00,47.5,36.7,30.29,North,1,0.0,0.0,66,0.00,SCT,SKC,0.00,WeatherDisplay:10.37,2013-04-15 19:20:00,
2013-04-15 21:30:00,47.1,36.7,30.29,North,1,0.0,0.0,67,0.00,SCT,SKC,0.00,WeatherDisplay:10.37,2013-04-15 19:30:00,
2013-04-15 22:00:00,45.5,36.6,30.29,North,1,0.0,0.0,71,0.00,SCT,SKC,0.00,WeatherDisplay:10.37,2013-04-15 20:00:00,
2013-04-15 22:10:00,45.1,35.9,30.29,North,1,0.0,0.0,70,0.00,SCT,SKC,0.00,WeatherDisplay:10.37,2013-04-15 20:10:00,
2013-04-15 22:20:00,44.4,36.0,30.29,North,1,0.0,0.0,72,0.00,SCT,SKC,0.00,WeatherDisplay:10.37,2013-04-15 20:20:00,
2013-04-15 22:30:00,44.1,35.6,30.30,North,1,0.0,0.0,72,0.00,SCT,SKC,0.00,WeatherDisplay:10.37,2013-04-15 20:30:00,
2013-04-15 22:40:00,43.9,35.4,30.30,North,1,0.0,0.0,72,0.00,SCT,SKC,0.00,WeatherDisplay:10.37,2013-04-15 20:40:00,
2013-04-15 22:50:00,43.5,35.1,30.30,North,1,0.0,0.0,72,0.00,SCT,SKC,0.00,WeatherDisplay:10.37,2013-04-15 20:50:00,
2013-04-15 23:00:00,43.2,34.7,30.30,North,1,0.0,0.0,72,0.00,SCT,SKC,0.00,WeatherDisplay:10.37,2013-04-15 21:00:00,
2013-04-15 23:10:00,42.6,34.2,30.30,North,1,0.0,0.0,72,0.00,SCT,SKC,0.00,WeatherDisplay:10.37,2013-04-15 21:10:00,
2013-04-15 23:20:00,41.7,33.7,30.30,North,1,0.0,0.0,73,0.00,SCT,SKC,0.00,WeatherDisplay:10.37,2013-04-15 21:20:00,
2013-04-15 23:30:00,41.5,33.9,30.30,North,1,0.0,0.0,74,0.00,SCT,SKC,0.00,WeatherDisplay:10.37,2013-04-15 21:30:00,
2013-04-15 23:40:00,41.2,33.5,30.30,North,1,0.0,0.0,74,0.00,SCT,SKC,0.00,WeatherDisplay:10.37,2013-04-15 21:40:00,
2013-04-15 23:50:00,41.2,33.9,30.29,North,1,0.0,0.0,75,0.00,SCT,SKC,0.00,WeatherDisplay:10.37,2013-04-15 21:50:00,